createdAt,value
2018-10-04T00:00:02.865Z,0
2018-10-04T00:05:02.955Z,0
2018-10-04T00:10:02.628Z,0
2018-10-04T00:15:03.251Z,0
2018-10-04T00:20:02.842Z,0
2018-10-04T00:25:03.343Z,0
2018-10-04T00:30:02.940Z,0
2018-10-04T00:35:02.567Z,0
2018-10-04T00:40:03.172Z,0
2018-10-04T00:45:02.726Z,0
2018-10-04T00:50:03.350Z,0
2018-10-04T00:55:02.851Z,0
2018-10-04T01:00:02.400Z,0
2018-10-04T01:05:03.086Z,0
2018-10-04T01:10:02.944Z,0
2018-10-04T01:15:02.521Z,0
2018-10-04T01:20:03.356Z,0
2018-10-04T01:25:02.942Z,0
2018-10-04T01:30:02.575Z,0
2018-10-04T01:35:03.361Z,0
2018-10-04T01:40:02.956Z,0
2018-10-04T01:45:02.586Z,0
2018-10-04T01:50:03.120Z,0
2018-10-04T01:55:02.639Z,0
2018-10-04T02:00:03.292Z,0
2018-10-04T02:05:02.816Z,0
2018-10-04T02:10:02.494Z,0
2018-10-04T02:15:03.045Z,0
2018-10-04T02:20:02.742Z,0
2018-10-04T02:25:03.404Z,0
2018-10-04T02:30:03.016Z,0
2018-10-04T02:35:02.632Z,0
2018-10-04T02:40:03.274Z,0
2018-10-04T02:45:02.877Z,0
2018-10-04T02:50:02.431Z,0
2018-10-04T02:55:02.955Z,0
2018-10-04T03:00:02.841Z,0
2018-10-04T03:05:02.457Z,0
2018-10-04T03:10:03.132Z,0
2018-10-04T03:15:02.655Z,0
2018-10-04T03:20:03.377Z,0
2018-10-04T03:25:03.471Z,0
2018-10-04T03:30:03.344Z,0
2018-10-04T03:35:03.335Z,0
2018-10-04T03:40:03.016Z,0
2018-10-04T03:45:02.698Z,0
2018-10-04T03:50:03.325Z,0
2018-10-04T03:55:02.954Z,0
2018-10-04T04:00:02.648Z,0
2018-10-04T04:05:03.277Z,0
2018-10-04T04:10:02.971Z,0
2018-10-04T04:15:02.605Z,0
2018-10-04T04:20:03.226Z,0
2018-10-04T04:25:03.003Z,0
2018-10-04T04:30:03.226Z,0
2018-10-04T04:35:02.802Z,0
2018-10-04T04:40:02.550Z,0
2018-10-04T04:45:03.165Z,0
2018-10-04T04:50:02.710Z,0
2018-10-04T04:55:03.230Z,0
2018-10-04T05:00:02.744Z,0
2018-10-04T05:05:02.462Z,0
2018-10-04T05:10:03.046Z,0
2018-10-04T05:15:02.641Z,1
2018-10-04T05:20:03.303Z,3
2018-10-04T05:25:02.898Z,9
2018-10-04T05:30:02.546Z,17
2018-10-04T05:35:03.207Z,26
2018-10-04T05:40:02.831Z,31
2018-10-04T05:45:03.684Z,39
2018-10-04T05:50:02.974Z,54
2018-10-04T05:55:02.610Z,66
2018-10-04T06:00:03.105Z,75
2018-10-04T06:05:02.942Z,96
2018-10-04T06:10:03.242Z,113
2018-10-04T06:15:03.130Z,154
2018-10-04T06:20:03.384Z,156
2018-10-04T06:25:02.894Z,259
2018-10-04T06:30:02.483Z,304
2018-10-04T06:35:03.453Z,360
2018-10-04T06:40:03.118Z,362
2018-10-04T06:45:02.943Z,436
2018-10-04T06:50:02.628Z,450
2018-10-04T06:55:02.516Z,572
2018-10-04T07:00:03.414Z,619
2018-10-04T07:05:03.078Z,689
2018-10-04T07:10:02.918Z,785
2018-10-04T07:15:02.889Z,783
2018-10-04T07:20:02.533Z,911
2018-10-04T07:25:03.132Z,1000
2018-10-04T07:30:03.042Z,1000
2018-10-04T07:35:02.811Z,1000
2018-10-04T07:40:02.948Z,1000
2018-10-04T07:45:02.529Z,1000
2018-10-04T07:50:03.313Z,1000
2018-10-04T07:55:03.190Z,1000
2018-10-04T08:00:02.891Z,1000
2018-10-04T08:05:02.659Z,1000
2018-10-04T08:10:03.352Z,1000
2018-10-04T08:15:03.067Z,2000
2018-10-04T08:20:02.744Z,3000
2018-10-04T08:25:03.320Z,3000
2018-10-04T08:30:02.843Z,3000
2018-10-04T08:35:02.545Z,3000
2018-10-04T08:40:03.445Z,3000
2018-10-04T08:45:03.127Z,3000
2018-10-04T08:50:02.780Z,4000
2018-10-04T08:55:02.381Z,6000
2018-10-04T09:00:03.161Z,6000
2018-10-04T09:05:02.715Z,6000
2018-10-04T09:10:03.423Z,7000
2018-10-04T09:15:03.079Z,7000
2018-10-04T09:20:02.626Z,14000
2018-10-04T09:25:03.313Z,8000
2018-10-04T09:30:02.860Z,7000
2018-10-04T09:35:02.528Z,6000
2018-10-04T09:40:03.247Z,7000
2018-10-04T09:45:02.812Z,7000
2018-10-04T09:50:02.425Z,8000
2018-10-04T09:55:02.958Z,10000
2018-10-04T10:00:02.525Z,9000
2018-10-04T10:05:03.205Z,16000
2018-10-04T10:10:02.883Z,16000
2018-10-04T10:15:02.448Z,17000
2018-10-04T10:20:03.020Z,12000
2018-10-04T10:25:02.820Z,15000
2018-10-04T10:30:02.357Z,9000
2018-10-04T10:35:02.878Z,8000
2018-10-04T10:40:02.860Z,8000
2018-10-04T10:45:03.158Z,8000
2018-10-04T10:50:02.668Z,10000
2018-10-04T10:55:03.205Z,10000
2018-10-04T11:00:02.885Z,9000
2018-10-04T11:05:02.487Z,10000
2018-10-04T11:10:03.363Z,37000
2018-10-04T11:15:03.325Z,37000
2018-10-04T11:20:03.031Z,37000
2018-10-04T11:25:02.710Z,37000
2018-10-04T11:30:03.404Z,37000
2018-10-04T11:35:02.964Z,37000
2018-10-04T11:40:02.587Z,40000
2018-10-04T11:45:03.247Z,22000
2018-10-04T11:50:02.879Z,36000
2018-10-04T11:55:02.422Z,21000
2018-10-04T12:00:03.002Z,24000
2018-10-04T12:05:02.611Z,30000
2018-10-04T12:10:03.172Z,43000
2018-10-04T12:15:02.745Z,26000
2018-10-04T12:20:02.451Z,23000
2018-10-04T12:25:03.217Z,17000
2018-10-04T12:30:02.919Z,26000
2018-10-04T12:35:02.468Z,19000
2018-10-04T12:40:03.159Z,18000
2018-10-04T12:45:02.845Z,36000
2018-10-04T12:50:02.752Z,31000
2018-10-04T12:55:03.413Z,20000
2018-10-04T13:00:02.945Z,19000
2018-10-04T13:05:02.563Z,14000
2018-10-04T13:10:03.222Z,35000
2018-10-04T13:15:02.740Z,13000
2018-10-04T13:20:02.424Z,35000
2018-10-04T13:25:03.010Z,36000
2018-10-04T13:30:02.595Z,25000
2018-10-04T13:35:03.192Z,19000
2018-10-04T13:40:02.829Z,11000
2018-10-04T13:45:03.468Z,15000
2018-10-04T13:50:02.412Z,9000
2018-10-04T13:55:03.021Z,8000
2018-10-04T14:00:02.686Z,8000
2018-10-04T14:05:03.308Z,8000
2018-10-04T14:10:02.901Z,29000
2018-10-04T14:15:02.412Z,18000
2018-10-04T14:20:03.011Z,6000
2018-10-04T14:25:02.599Z,7000
2018-10-04T14:30:03.232Z,14000
2018-10-04T14:35:02.827Z,8000
2018-10-04T14:40:02.525Z,13000
2018-10-04T14:45:03.158Z,5000
2018-10-04T14:50:02.833Z,5000
2018-10-04T14:55:02.481Z,6000
2018-10-04T15:00:03.288Z,6000
2018-10-04T15:05:02.902Z,5000
2018-10-04T15:10:02.545Z,4000
2018-10-04T15:15:03.182Z,3000
2018-10-04T15:20:02.718Z,3000
2018-10-04T15:25:03.322Z,4000
2018-10-04T15:30:02.893Z,3000
2018-10-04T15:35:02.478Z,4000
2018-10-04T15:40:03.121Z,9000
2018-10-04T15:45:02.769Z,3000
2018-10-04T15:50:03.350Z,9000
2018-10-04T15:55:02.918Z,2000
2018-10-04T16:00:02.532Z,3000
2018-10-04T16:05:03.121Z,2000
2018-10-04T16:10:02.716Z,2000
2018-10-04T16:15:03.430Z,1000
2018-10-04T16:20:03.033Z,1000
2018-10-04T16:25:02.677Z,1000
2018-10-04T16:30:03.276Z,1000
2018-10-04T16:35:02.891Z,1000
2018-10-04T16:40:02.550Z,867
2018-10-04T16:45:03.294Z,719
2018-10-04T16:50:02.782Z,611
2018-10-04T16:55:02.650Z,485
2018-10-04T17:00:03.073Z,368
2018-10-04T17:05:02.734Z,131
2018-10-04T17:10:02.521Z,79
2018-10-04T17:15:03.269Z,64
2018-10-04T17:20:02.351Z,53
2018-10-04T17:25:02.899Z,24
2018-10-04T17:30:02.500Z,13
2018-10-04T17:35:03.104Z,6
2018-10-04T17:40:02.847Z,2
2018-10-04T17:45:02.454Z,0
2018-10-04T17:50:03.067Z,0
2018-10-04T17:55:02.717Z,0
2018-10-04T18:00:03.317Z,0
2018-10-04T18:05:02.800Z,0
2018-10-04T18:10:02.473Z,0
2018-10-04T18:15:03.075Z,0
2018-10-04T18:20:02.677Z,0
2018-10-04T18:25:03.249Z,0
2018-10-04T18:30:02.778Z,0
2018-10-04T18:35:02.561Z,0
2018-10-04T18:40:03.161Z,0
2018-10-04T18:45:02.720Z,0
2018-10-04T18:50:03.335Z,0
2018-10-04T18:55:02.855Z,0
2018-10-04T19:00:02.437Z,0
2018-10-04T19:05:03.040Z,0
2018-10-04T19:10:02.705Z,0
2018-10-04T19:15:03.308Z,0
2018-10-04T19:20:02.993Z,0
2018-10-04T19:25:02.583Z,0
2018-10-04T19:30:03.170Z,0
2018-10-04T19:35:02.783Z,0
2018-10-04T19:40:02.474Z,0
2018-10-04T19:45:03.077Z,0
2018-10-04T19:50:02.637Z,0
2018-10-04T19:55:03.367Z,0
2018-10-04T20:00:04.122Z,0
2018-10-04T20:05:02.664Z,0
2018-10-04T20:10:02.399Z,0
2018-10-04T20:15:03.028Z,0
2018-10-04T20:20:02.736Z,0
2018-10-04T20:25:02.430Z,0
2018-10-04T20:30:02.996Z,0
2018-10-04T20:35:02.918Z,0
2018-10-04T20:40:02.404Z,0
2018-10-04T20:45:02.961Z,0
2018-10-04T20:50:02.623Z,0
2018-10-04T20:55:03.296Z,0
2018-10-04T21:00:02.877Z,0
2018-10-04T21:05:02.509Z,0
2018-10-04T21:10:03.145Z,0
2018-10-04T21:15:02.714Z,0
2018-10-04T21:20:03.363Z,0
2018-10-04T21:25:02.946Z,0
2018-10-04T21:30:02.717Z,0
2018-10-04T21:35:02.377Z,0
2018-10-04T21:40:03.057Z,0
2018-10-04T21:45:02.697Z,0
2018-10-04T21:50:02.600Z,0
2018-10-04T21:55:03.220Z,0
2018-10-04T22:00:02.803Z,0
2018-10-04T22:05:02.651Z,0
2018-10-04T22:10:03.362Z,0
2018-10-04T22:15:02.904Z,0
2018-10-04T22:20:02.590Z,0
2018-10-04T22:25:03.157Z,0
2018-10-04T22:30:02.725Z,0
2018-10-04T22:35:03.245Z,0
2018-10-04T22:40:02.872Z,0
2018-10-04T22:45:02.409Z,0
2018-10-04T22:50:03.028Z,0
2018-10-04T22:55:02.777Z,0
2018-10-04T23:00:02.414Z,0
2018-10-04T23:05:03.298Z,0
2018-10-04T23:10:02.936Z,0
2018-10-04T23:15:02.524Z,0
2018-10-04T23:20:03.203Z,0
2018-10-04T23:25:02.938Z,0
2018-10-04T23:30:02.508Z,0
2018-10-04T23:35:03.237Z,0
2018-10-04T23:40:02.921Z,0
2018-10-04T23:45:02.507Z,0
2018-10-04T23:50:03.062Z,0
2018-10-04T23:55:02.754Z,0
